Time;durP1;ratioP1;P1;durP2;ratioP2;P2;SDS_P1;SDS_P2;PMS_P1;PMS_P2;Temp;Humidity;BMP_temperature;BMP_pressure;BME280_temperature;BME280_humidity;BME280_pressure;Samples;Min_cycle;Max_cycle;Signal;HPM_P1;HPM_P2
2023/05/15 00:00:43;;;;;;;34.13;25.80;;;;;;;10.90;100.00;101385.28;5086646;28;20024;-68
2023/05/15 00:03:08;;;;;;;34.70;24.85;;;;;;;10.85;100.00;101384.31;5079350;28;20032;-67
2023/05/15 00:05:33;;;;;;;35.17;25.95;;;;;;;10.83;100.00;101379.03;5086080;28;20051;-68
2023/05/15 00:07:59;;;;;;;34.00;25.77;;;;;;;10.72;100.00;101378.03;5083677;28;20113;-67
2023/05/15 00:10:24;;;;;;;36.67;26.73;;;;;;;10.69;100.00;101373.59;5084398;28;20052;-67
2023/05/15 00:12:49;;;;;;;36.25;26.95;;;;;;;10.70;100.00;101375.34;5085186;28;20150;-67
2023/05/15 00:15:15;;;;;;;36.78;26.83;;;;;;;10.71;100.00;101371.84;5083230;28;20032;-68
2023/05/15 00:17:40;;;;;;;34.70;26.20;;;;;;;10.64;100.00;101372.63;5085933;28;20031;-68
2023/05/15 00:20:08;;;;;;;37.13;26.95;;;;;;;10.69;100.00;101370.94;5082850;28;20029;-67
2023/05/15 00:22:34;;;;;;;37.13;26.65;;;;;;;10.59;100.00;101377.84;5085602;28;20036;-68
2023/05/15 00:24:59;;;;;;;37.38;26.95;;;;;;;10.53;100.00;101371.59;5083299;28;20028;-67
2023/05/15 00:27:25;;;;;;;36.83;27.17;;;;;;;10.37;100.00;101374.06;5084351;28;20068;-67
2023/05/15 00:29:50;;;;;;;38.15;27.00;;;;;;;10.39;100.00;101363.50;5084516;28;20028;-69
2023/05/15 00:32:16;;;;;;;37.15;27.40;;;;;;;10.32;100.00;101364.25;5082882;28;20031;-71
2023/05/15 00:34:41;;;;;;;39.10;28.55;;;;;;;10.24;100.00;101358.88;5086002;28;20024;-72
2023/05/15 00:37:07;;;;;;;36.10;27.67;;;;;;;10.23;100.00;101365.88;5082237;28;20123;-70
2023/05/15 00:39:32;;;;;;;38.63;28.17;;;;;;;10.22;100.00;101360.59;5085050;28;20045;-72
2023/05/15 00:41:59;;;;;;;38.35;28.55;;;;;;;10.16;100.00;101364.03;5083405;28;20024;-73
2023/05/15 00:44:26;;;;;;;38.22;28.08;;;;;;;10.11;100.00;101357.81;5083783;28;20131;-72
2023/05/15 00:46:53;;;;;;;37.20;28.00;;;;;;;10.08;100.00;101356.00;5084209;28;20436;-70
2023/05/15 00:49:20;;;;;;;38.53;28.00;;;;;;;10.05;100.00;101355.94;5082845;28;20067;-70
2023/05/15 00:51:46;;;;;;;37.70;28.23;;;;;;;10.03;100.00;101352.41;5084844;28;20475;-69
2023/05/15 00:54:11;;;;;;;39.50;28.67;;;;;;;9.95;100.00;101357.56;5081799;28;20127;-69
2023/05/15 00:56:37;;;;;;;40.03;28.83;;;;;;;9.90;100.00;101359.25;5085309;28;20040;-70
2023/05/15 00:59:03;;;;;;;38.40;28.42;;;;;;;9.91;100.00;101361.00;5082423;28;20060;-70
2023/05/15 01:01:33;;;;;;;38.85;28.15;;;;;;;10.00;100.00;101354.97;5084242;28;20047;-70
2023/05/15 01:03:58;;;;;;;37.38;27.60;;;;;;;9.95;100.00;101351.41;5083118;28;20036;-69
2023/05/15 01:06:24;;;;;;;38.45;29.10;;;;;;;9.86;100.00;101351.25;5083588;28;20549;-71
2023/05/15 01:08:50;;;;;;;38.60;29.77;;;;;;;9.85;100.00;101345.09;5084202;28;20024;-71
2023/05/15 01:11:16;;;;;;;38.90;29.33;;;;;;;9.86;100.00;101352.16;5082157;28;20032;-68
2023/05/15 01:13:43;;;;;;;37.63;28.52;;;;;;;9.82;100.00;101338.88;5084931;28;20058;-73
2023/05/15 01:16:09;;;;;;;39.42;29.63;;;;;;;9.72;100.00;101345.75;5077693;28;20475;-69
2023/05/15 01:18:35;;;;;;;39.70;28.60;;;;;;;9.64;100.00;101343.00;5084494;28;20028;-76
2023/05/15 01:21:03;;;;;;;41.10;29.67;;;;;;;9.60;100.00;101338.53;5082258;28;20111;-70
2023/05/15 01:23:55;;;;;;;39.60;29.70;;;;;;;9.56;100.00;101353.41;5083844;28;20029;-74
2023/05/15 01:26:32;;;;;;;38.53;29.40;;;;;;;9.52;100.00;101341.06;5046619;28;20036;-72
2023/05/15 01:29:03;;;;;;;41.28;29.73;;;;;;;9.47;100.00;101341.84;5082335;28;20036;-73
2023/05/15 01:31:33;;;;;;;40.38;29.55;;;;;;;9.46;100.00;101340.06;5083514;28;20475;-75
2023/05/15 01:34:02;;;;;;;41.42;30.10;;;;;;;9.42;100.00;101339.09;5082365;28;20028;-75
2023/05/15 01:36:36;;;;;;;41.03;30.40;;;;;;;9.44;100.00;101337.41;5083061;28;20120;-75
2023/05/15 01:39:04;;;;;;;41.40;30.13;;;;;;;9.47;100.00;101341.84;5081996;28;20463;-72
2023/05/15 01:41:29;;;;;;;43.50;31.17;;;;;;;9.38;100.00;101332.91;5082966;28;20048;-74
2023/05/15 01:43:58;;;;;;;40.92;30.48;;;;;;;9.31;100.00;101338.94;5082750;28;20066;-74
2023/05/15 01:46:26;;;;;;;41.95;30.45;;;;;;;9.27;100.00;101334.47;5082597;28;20040;-73
2023/05/15 01:48:53;;;;;;;42.47;30.88;;;;;;;9.29;100.00;101337.13;5083248;28;20478;-72
2023/05/15 01:51:21;;;;;;;43.15;31.55;;;;;;;9.25;100.00;101326.53;5081746;28;20387;-72
2023/05/15 01:53:48;;;;;;;42.55;31.40;;;;;;;9.25;100.00;101323.00;5083825;28;20031;-74
2023/05/15 01:56:14;;;;;;;41.25;30.88;;;;;;;9.31;100.00;101320.47;5080854;28;20119;-74
2023/05/15 01:58:40;;;;;;;40.92;30.77;;;;;;;9.34;100.00;101319.63;5084378;28;20482;-72
2023/05/15 02:01:08;;;;;;;41.20;30.63;;;;;;;9.33;100.00;101321.38;5081019;28;20020;-74
2023/05/15 02:03:34;;;;;;;40.75;30.55;;;;;;;9.35;100.00;101317.03;5083691;28;20486;-74
2023/05/15 02:06:01;;;;;;;41.83;31.35;;;;;;;9.35;100.00;101314.38;5081941;28;20028;-72
2023/05/15 02:08:27;;;;;;;40.70;30.63;;;;;;;9.31;100.00;101325.75;5082597;28;20394;-67
2023/05/15 02:10:56;;;;;;;43.25;32.00;;;;;;;9.32;100.00;101326.63;5082693;28;20024;-75
2023/05/15 02:13:24;;;;;;;42.25;31.52;;;;;;;9.37;100.00;101319.69;5081907;28;20020;-70
2023/05/15 02:15:50;;;;;;;40.05;30.63;;;;;;;9.34;100.00;101317.88;5083096;28;20090;-74
2023/05/15 02:18:15;;;;;;;41.30;30.35;;;;;;;9.34;100.00;101309.97;5063117;28;20028;-74
2023/05/15 02:20:41;;;;;;;42.45;31.08;;;;;;;9.37;100.00;101314.41;5083972;28;20049;-73
2023/05/15 02:23:06;;;;;;;41.20;31.02;;;;;;;9.27;100.00;101317.75;5080789;28;20407;-69
2023/05/15 02:26:04;;;;;;;44.70;31.48;;;;;;;9.25;100.00;101315.09;5083080;28;20024;-69
2023/05/15 02:28:50;;;;;;;42.67;30.45;;;;;;;9.20;100.00;101316.75;5081444;28;20139;-67
2023/05/15 02:32:02;;;;;;;42.65;31.15;;;;;;;9.20;100.00;101322.03;5077951;28;20036;-68
2023/05/15 02:34:44;;;;;;;43.88;32.20;;;;;;;9.20;100.00;101327.28;5077830;28;20037;-67
2023/05/15 02:37:13;;;;;;;43.03;32.20;;;;;;;9.17;100.00;101329.88;5076682;28;20545;-67
2023/05/15 02:39:41;;;;;;;43.47;31.77;;;;;;;9.11;100.00;101337.69;5076633;28;20021;-68
2023/05/15 02:42:08;;;;;;;43.20;31.58;;;;;;;9.07;100.00;101331.47;5085370;28;20024;-68
2023/05/15 02:44:34;;;;;;;42.97;32.35;;;;;;;9.02;100.00;101339.28;5084663;28;20107;-68
2023/05/15 02:47:02;;;;;;;44.15;32.25;;;;;;;9.05;100.00;101335.81;5086623;28;20033;-68
2023/05/15 02:49:28;;;;;;;46.88;34.08;;;;;;;8.96;100.00;101336.53;5085766;28;20040;-67
2023/05/15 02:51:53;;;;;;;44.33;32.47;;;;;;;8.90;100.00;101336.44;5085738;28;20475;-67
2023/05/15 02:54:19;;;;;;;46.08;34.03;;;;;;;8.85;100.00;101335.44;5086859;28;20502;-68
2023/05/15 02:56:45;;;;;;;48.65;34.83;;;;;;;8.91;100.00;101330.28;5084619;28;20483;-67
2023/05/15 02:59:12;;;;;;;47.08;34.60;;;;;;;8.90;100.00;101331.16;5087385;28;20134;-68
2023/05/15 03:01:37;;;;;;;47.53;35.35;;;;;;;8.86;100.00;101326.69;5084226;28;20030;-68
2023/05/15 03:04:03;;;;;;;46.38;34.05;;;;;;;8.80;100.00;101321.31;5069026;28;20047;-67
2023/05/15 03:06:30;;;;;;;50.17;36.50;;;;;;;8.77;100.00;101324.75;5085400;28;20047;-67
2023/05/15 03:08:55;;;;;;;48.70;35.92;;;;;;;8.70;100.00;101329.00;5085643;28;20036;-69
2023/05/15 03:11:21;;;;;;;48.30;36.28;;;;;;;8.80;100.00;101327.44;5086793;28;20056;-71
2023/05/15 03:13:46;;;;;;;48.50;36.40;;;;;;;8.78;100.00;101323.91;5084541;28;20039;-71
2023/05/15 03:16:11;;;;;;;50.47;35.35;;;;;;;8.87;100.00;101323.19;5087733;28;20355;-69
2023/05/15 03:18:37;;;;;;;50.03;37.13;;;;;;;8.68;100.00;101330.75;5083963;28;20025;-69
2023/05/15 03:21:02;;;;;;;48.35;34.95;;;;;;;8.73;100.00;101313.25;5086366;28;20028;-70
2023/05/15 03:23:27;;;;;;;49.38;36.03;;;;;;;8.64;100.00;101315.72;5085377;28;20030;-70
2023/05/15 03:25:53;;;;;;;51.10;36.92;;;;;;;8.62;100.00;101317.44;5084896;28;20029;-71
2023/05/15 03:28:18;;;;;;;51.22;38.17;;;;;;;8.57;100.00;101324.38;5086402;28;20590;-71
2023/05/15 03:30:44;;;;;;;51.95;38.15;;;;;;;8.55;100.00;101320.81;5083556;28;20115;-70
2023/05/15 03:33:09;;;;;;;52.90;37.55;;;;;;;8.47;100.00;101322.41;5079479;28;20035;-72
2023/05/15 03:35:35;;;;;;;55.15;37.65;;;;;;;8.37;100.00;101319.56;5086318;28;20486;-72
2023/05/15 03:38:00;;;;;;;51.60;36.95;;;;;;;8.42;100.00;101311.72;5084672;28;20059;-73
2023/05/15 03:40:25;;;;;;;50.80;37.72;;;;;;;8.37;100.00;101314.28;5067053;28;20124;-70
2023/05/15 03:42:52;;;;;;;52.97;37.83;;;;;;;8.30;100.00;101304.47;5085746;28;20055;-69
2023/05/15 03:45:18;;;;;;;55.22;39.17;;;;;;;8.32;100.00;101308.00;5083636;28;20070;-71
2023/05/15 03:47:43;;;;;;;52.03;38.35;;;;;;;8.30;100.00;101307.09;5086656;28;20542;-71
2023/05/15 03:50:09;;;;;;;54.53;40.05;;;;;;;8.27;100.00;101304.41;5065447;28;20094;-69
2023/05/15 03:52:34;;;;;;;54.25;39.72;;;;;;;8.23;100.00;101313.09;5085480;28;20024;-71
2023/05/15 03:55:00;;;;;;;55.33;39.65;;;;;;;8.17;100.00;101303.31;5084371;28;20020;-70
2023/05/15 03:57:26;;;;;;;54.25;39.08;;;;;;;8.22;100.00;101306.03;5084796;28;20026;-71
2023/05/15 03:59:51;;;;;;;54.45;39.85;;;;;;;8.11;100.00;101307.53;5067416;28;20039;-70
2023/05/15 04:02:16;;;;;;;53.55;38.70;;;;;;;8.13;100.00;101311.13;5083176;28;20028;-74
2023/05/15 04:04:43;;;;;;;54.53;39.08;;;;;;;8.09;100.00;101306.63;5086559;28;20055;-70
2023/05/15 04:07:09;;;;;;;57.13;40.63;;;;;;;8.06;100.00;101309.22;5082928;28;20032;-73
2023/05/15 04:09:34;;;;;;;53.17;38.63;;;;;;;8.11;100.00;101304.91;5085321;28;20047;-71
2023/05/15 04:11:59;;;;;;;56.33;39.67;;;;;;;8.11;100.00;101310.19;5084298;28;20055;-71
2023/05/15 04:14:25;;;;;;;54.95;39.97;;;;;;;8.12;100.00;101306.69;5084059;28;20021;-69
2023/05/15 04:16:50;;;;;;;55.58;40.78;;;;;;;8.18;100.00;101304.19;5085146;28;20116;-72
2023/05/15 04:19:15;;;;;;;56.75;40.58;;;;;;;8.08;100.00;101315.38;5082974;28;20028;-74
2023/05/15 04:21:41;;;;;;;57.03;41.22;;;;;;;8.11;100.00;101313.72;5085960;28;20110;-74
2023/05/15 04:24:07;;;;;;;59.58;41.50;;;;;;;8.06;100.00;101312.72;5082826;28;20040;-74
2023/05/15 04:26:33;;;;;;;59.25;42.35;;;;;;;8.01;100.00;101307.34;5085086;28;20037;-73
2023/05/15 04:28:58;;;;;;;58.92;41.58;;;;;;;8.06;100.00;101306.56;5083927;28;20032;-74
2023/05/15 04:31:26;;;;;;;58.28;42.17;;;;;;;8.06;100.00;101315.34;5083956;28;20028;-74
2023/05/15 04:33:51;;;;;;;59.05;41.70;;;;;;;8.00;100.00;101316.09;5084973;28;20036;-74
2023/05/15 04:36:16;;;;;;;57.75;40.25;;;;;;;8.08;100.00;101316.28;5082880;28;20040;-74
2023/05/15 04:38:42;;;;;;;58.17;42.35;;;;;;;8.19;100.00;101316.50;5086123;28;20059;-74
2023/05/15 04:41:07;;;;;;;57.03;41.22;;;;;;;8.20;100.00;101328.84;5082659;28;20035;-70
2023/05/15 04:43:32;;;;;;;57.35;41.38;;;;;;;8.40;100.00;101331.88;5084577;28;20020;-73
2023/05/15 04:45:58;;;;;;;55.65;41.08;;;;;;;8.47;100.00;101333.81;5083552;28;20048;-74
2023/05/15 04:48:23;;;;;;;53.97;39.70;;;;;;;8.65;100.00;101335.97;5082918;28;20048;-76
2023/05/15 04:50:48;;;;;;;56.03;40.08;;;;;;;8.66;100.00;101342.09;5066997;28;20054;-71
2023/05/15 04:53:14;;;;;;;55.85;40.13;;;;;;;8.79;100.00;101341.47;5082311;28;20025;-70
2023/05/15 04:55:39;;;;;;;52.75;38.03;;;;;;;8.93;100.00;101333.84;5085429;28;20028;-72
2023/05/15 04:58:05;;;;;;;55.05;39.80;;;;;;;8.88;100.00;101340.78;5082544;28;20426;-74
2023/05/15 05:00:30;;;;;;;54.42;38.55;;;;;;;8.95;100.00;101342.66;5083994;28;20109;-70
2023/05/15 05:02:56;;;;;;;56.15;38.70;;;;;;;8.94;100.00;101337.38;5084004;28;20063;-74
2023/05/15 05:05:21;;;;;;;55.60;37.72;;;;;;;8.98;100.00;101334.81;5081598;28;20033;-74
2023/05/15 05:07:46;;;;;;;55.53;37.95;;;;;;;8.94;100.00;101335.63;5084971;28;20040;-73
2023/05/15 05:10:12;;;;;;;54.00;37.88;;;;;;;8.95;100.00;101342.66;5081603;28;20024;-73
2023/05/15 05:12:38;;;;;;;50.50;34.53;;;;;;;9.04;100.00;101339.31;5084982;28;20043;-75
2023/05/15 05:15:03;;;;;;;50.88;34.83;;;;;;;9.11;100.00;101343.84;5082505;28;20031;-74
2023/05/15 05:17:30;;;;;;;50.30;34.55;;;;;;;9.25;100.00;101344.97;5083372;28;20028;-74
2023/05/15 05:19:55;;;;;;;49.15;33.30;;;;;;;9.29;100.00;101348.59;5083547;28;20016;-73
2023/05/15 05:22:20;;;;;;;49.97;32.88;;;;;;;9.32;100.00;101345.09;5082136;28;20601;-74
2023/05/15 05:24:46;;;;;;;49.72;32.53;;;;;;;9.37;100.00;101349.59;5084865;28;20500;-72
2023/05/15 05:27:11;;;;;;;46.15;31.95;;;;;;;9.44;100.00;101347.94;5081527;28;20478;-69
2023/05/15 05:29:37;;;;;;;46.83;31.52;;;;;;;9.51;100.00;101357.75;5084300;28;20039;-67
2023/05/15 05:32:02;;;;;;;46.88;31.65;;;;;;;9.55;100.00;101364.88;5082193;28;20386;-67
2023/05/15 05:34:27;;;;;;;46.90;32.67;;;;;;;9.54;100.00;101360.44;5083045;28;20040;-67
2023/05/15 05:36:53;;;;;;;46.60;31.33;;;;;;;9.59;100.00;101364.03;5083630;28;20189;-68
2023/05/15 05:39:18;;;;;;;44.17;29.58;;;;;;;9.51;100.00;101359.47;5081580;28;20067;-66
2023/05/15 05:41:44;;;;;;;45.30;30.70;;;;;;;9.61;100.00;101366.72;5073622;28;20027;-75
2023/05/15 05:44:09;;;;;;;44.30;30.92;;;;;;;9.67;100.00;101369.44;5072120;28;20585;-72
2023/05/15 05:46:35;;;;;;;43.45;31.33;;;;;;;9.70;100.00;101373.91;5078036;28;20051;-71
2023/05/15 05:49:00;;;;;;;42.05;29.20;;;;;;;9.74;100.00;101373.97;5077709;28;20072;-72
2023/05/15 05:51:25;;;;;;;43.05;30.10;;;;;;;9.83;100.00;101369.69;5076297;28;20025;-70
2023/05/15 05:53:51;;;;;;;41.15;29.40;;;;;;;9.97;100.00;101369.91;5078180;28;20066;-74
2023/05/15 05:56:16;;;;;;;45.65;29.27;;;;;;;10.06;100.00;101364.75;5078110;28;20039;-69
2023/05/15 05:58:42;;;;;;;40.95;28.73;;;;;;;10.24;100.00;101369.44;5078152;28;20024;-65
2023/05/15 06:01:07;;;;;;;41.65;28.92;;;;;;;10.46;100.00;101362.72;5058106;28;20123;-69
2023/05/15 06:03:33;;;;;;;40.92;28.92;;;;;;;10.59;100.00;101367.28;5076060;28;20087;-70
2023/05/15 06:05:59;;;;;;;40.47;29.00;;;;;;;10.58;100.00;101364.63;5076506;28;20039;-67
2023/05/15 06:08:25;;;;;;;39.85;28.67;;;;;;;10.57;100.00;101352.25;5083223;28;20037;-68
2023/05/15 06:10:50;;;;;;;40.72;29.55;;;;;;;10.63;100.00;101358.53;5082228;28;20029;-68
2023/05/15 06:13:16;;;;;;;38.42;27.98;;;;;;;10.55;100.00;101364.59;5079433;28;20025;-67
2023/05/15 06:15:42;;;;;;;38.72;27.52;;;;;;;10.49;100.00;101359.22;5081966;28;20028;-67
2023/05/15 06:18:08;;;;;;;38.90;27.25;;;;;;;10.44;100.00;101367.97;5082513;28;20359;-69
2023/05/15 06:20:33;;;;;;;37.58;27.77;;;;;;;10.36;100.00;101360.81;5081459;28;20075;-73
2023/05/15 06:22:58;;;;;;;37.28;27.25;;;;;;;10.50;100.00;101364.53;5099421;28;20538;-71
2023/05/15 06:25:24;;;;;;;36.80;26.65;;;;;;;10.74;100.00;101361.28;5097796;28;20020;-70
2023/05/15 06:27:49;;;;;;;35.83;26.42;;;;;;;11.00;100.00;101371.28;5099305;28;20063;-73
2023/05/15 06:30:15;;;;;;;36.10;26.33;;;;;;;11.15;100.00;101374.09;5096834;28;20024;-68
2023/05/15 06:32:40;;;;;;;35.17;25.88;;;;;;;11.18;100.00;101373.22;5097969;28;20046;-73
2023/05/15 06:35:07;;;;;;;34.40;25.73;;;;;;;11.20;100.00;101367.94;5095619;28;20475;-70
2023/05/15 06:37:32;;;;;;;36.28;26.10;;;;;;;11.03;100.00;101362.50;5076359;28;20025;-69
2023/05/15 06:39:58;;;;;;;38.80;26.02;;;;;;;10.91;100.00;101365.91;5073828;28;20368;-67
2023/05/15 06:42:23;;;;;;;35.42;25.40;;;;;;;10.94;100.00;101361.53;5076483;28;20028;-67
2023/05/15 06:44:48;;;;;;;35.92;26.25;;;;;;;11.22;100.00;101358.28;5076811;28;20048;-70
2023/05/15 06:47:14;;;;;;;35.30;26.13;;;;;;;11.39;100.00;101366.38;5076661;28;20039;-66
2023/05/15 06:49:40;;;;;;;35.97;27.58;;;;;;;11.41;100.00;101354.94;5074942;28;20035;-69
2023/05/15 06:52:05;;;;;;;36.10;26.95;;;;;;;11.19;100.00;101358.25;5077955;28;20032;-67
2023/05/15 06:54:31;;;;;;;36.00;26.65;;;;;;;11.08;100.00;101355.47;5073961;28;20029;-69
2023/05/15 06:56:56;;;;;;;34.92;27.20;;;;;;;10.87;100.00;101357.03;5074611;28;20043;-69
2023/05/15 06:59:21;;;;;;;36.47;26.77;;;;;;;10.88;100.00;101360.56;5073314;28;20024;-68
2023/05/15 07:01:47;;;;;;;34.15;25.65;;;;;;;11.00;100.00;101352.78;5077293;28;20438;-67
2023/05/15 07:04:12;;;;;;;35.78;27.80;;;;;;;11.30;100.00;101351.28;5070141;28;20472;-66
2023/05/15 07:06:38;;;;;;;39.17;29.63;;;;;;;11.58;100.00;101356.84;5077632;28;20068;-66
2023/05/15 07:09:03;;;;;;;36.60;29.13;;;;;;;11.61;100.00;101363.03;5077750;28;20032;-66
2023/05/15 07:11:29;;;;;;;37.67;29.60;;;;;;;11.65;100.00;101358.69;5074905;28;20115;-67
2023/05/15 07:13:55;;;;;;;34.95;27.60;;;;;;;11.64;100.00;101362.19;5076716;28;20060;-67
2023/05/15 07:16:20;;;;;;;35.40;26.27;;;;;;;11.72;100.00;101360.47;5057640;28;20459;-66
2023/05/15 07:18:45;;;;;;;34.40;26.45;;;;;;;11.79;100.00;101359.66;5075089;28;20111;-68
2023/05/15 07:21:11;;;;;;;36.17;27.60;;;;;;;11.80;100.00;101352.59;5075990;28;20021;-66
2023/05/15 07:23:36;;;;;;;37.35;29.35;;;;;;;11.72;100.00;101360.47;5075209;28;20391;-69
2023/05/15 07:26:02;;;;;;;37.00;28.20;;;;;;;11.67;100.00;101360.44;5075150;28;20483;-70
2023/05/15 07:28:27;;;;;;;35.40;28.17;;;;;;;11.88;100.00;101363.25;5077537;28;20106;-70
2023/05/15 07:30:52;;;;;;;35.75;27.92;;;;;;;11.92;100.00;101363.28;5083599;28;20067;-68
2023/05/15 07:33:18;;;;;;;37.33;29.00;;;;;;;11.87;100.00;101359.72;5082466;28;20036;-67
2023/05/15 07:35:43;;;;;;;37.47;29.65;;;;;;;11.89;100.00;101350.00;5081020;28;20024;-67
2023/05/15 07:38:09;;;;;;;36.88;29.42;;;;;;;11.85;100.00;101351.78;5079737;28;20031;-70
2023/05/15 07:40:34;;;;;;;36.25;29.20;;;;;;;12.10;100.00;101346.66;5077334;28;20043;-67
2023/05/15 07:42:59;;;;;;;38.15;30.50;;;;;;;12.53;100.00;101344.22;5082313;28;20036;-68
2023/05/15 07:45:25;;;;;;;39.28;30.90;;;;;;;12.58;100.00;101344.22;5060806;28;20113;-67
2023/05/15 07:47:50;;;;;;;39.88;30.80;;;;;;;12.63;100.00;101342.50;5081630;28;20025;-68
2023/05/15 07:50:16;;;;;;;39.17;29.63;;;;;;;12.64;100.00;101346.03;5081176;28;20485;-68
2023/05/15 07:52:42;;;;;;;36.67;29.55;;;;;;;12.61;100.00;101338.06;5081039;28;20044;-68
2023/05/15 07:55:09;;;;;;;38.38;30.02;;;;;;;12.57;100.00;101342.47;5081406;28;20117;-68
2023/05/15 07:57:35;;;;;;;38.60;31.08;;;;;;;12.51;100.00;101338.03;5080180;28;20016;-69
2023/05/15 08:00:09;;;;;;;39.72;33.15;;;;;;;12.51;100.00;101331.84;5077263;28;20029;-67
2023/05/15 08:02:35;;;;;;;40.53;33.83;;;;;;;12.56;100.00;101333.63;5080750;28;20531;-68
2023/05/15 08:05:00;;;;;;;40.70;34.58;;;;;;;12.71;100.00;101334.56;5082603;28;20459;-69
2023/05/15 08:07:25;;;;;;;40.42;32.80;;;;;;;12.80;100.00;101329.28;5085641;28;20121;-68
2023/05/15 08:09:51;;;;;;;41.45;33.83;;;;;;;12.93;100.00;101330.22;5083748;28;20387;-68
2023/05/15 08:12:21;;;;;;;40.95;34.03;;;;;;;12.99;100.00;101337.28;5084795;28;20082;-68
2023/05/15 08:14:52;;;;;;;42.15;34.53;;;;;;;13.04;100.00;101332.88;5084523;28;20024;-68
2023/05/15 08:17:18;;;;;;;39.70;32.00;;;;;;;13.06;100.00;101329.34;5082665;28;20028;-68
2023/05/15 08:19:43;;;;;;;39.92;32.60;;;;;;;13.24;100.00;101331.13;5078260;28;20382;-69
2023/05/15 08:22:09;;;;;;;39.40;31.88;;;;;;;13.41;100.00;101338.25;5078474;28;20119;-66
2023/05/15 08:24:34;;;;;;;39.53;32.83;;;;;;;13.44;100.00;101330.31;5077496;28;20139;-68
2023/05/15 08:27:00;;;;;;;40.05;33.08;;;;;;;13.78;100.00;101332.94;5076543;28;20036;-68
2023/05/15 08:29:25;;;;;;;41.47;34.05;;;;;;;14.10;100.00;101337.31;5059349;28;20024;-67
2023/05/15 08:31:51;;;;;;;44.08;37.17;;;;;;;13.98;100.00;101345.31;5079380;28;20025;-66
2023/05/15 08:34:17;;;;;;;42.60;36.58;;;;;;;13.93;100.00;101343.53;5078787;28;20119;-66
2023/05/15 08:36:44;;;;;;;42.13;36.67;;;;;;;13.97;100.00;101333.81;5077733;28;20540;-66
2023/05/15 08:39:09;;;;;;;44.75;38.58;;;;;;;14.02;100.00;101336.44;5075954;28;20020;-65
2023/05/15 08:41:59;;;;;;;43.75;37.40;;;;;;;14.31;100.00;101336.38;5077218;28;20033;-67
2023/05/15 08:44:25;;;;;;;42.58;35.85;;;;;;;14.78;100.00;101335.31;5076508;28;20041;-66
2023/05/15 08:46:52;;;;;;;43.25;36.17;;;;;;;15.20;100.00;101336.84;5078740;28;20403;-67
2023/05/15 08:49:27;;;;;;;42.88;35.47;;;;;;;15.30;100.00;101339.44;5079501;28;20119;-67
2023/05/15 08:51:54;;;;;;;43.13;36.28;;;;;;;14.92;100.00;101337.88;5079523;28;20029;-67
2023/05/15 08:54:20;;;;;;;42.97;35.38;;;;;;;14.69;100.00;101339.78;5081187;28;20059;-67
2023/05/15 08:56:46;;;;;;;43.35;35.45;;;;;;;14.74;100.00;101327.38;5064696;28;20497;-67
2023/05/15 08:59:11;;;;;;;42.05;35.35;;;;;;;15.14;100.00;101335.09;5066367;28;20028;-68
2023/05/15 09:01:37;;;;;;;39.90;34.10;;;;;;;15.76;100.00;101329.28;5082092;28;20033;-68
2023/05/15 09:04:03;;;;;;;40.45;34.13;;;;;;;16.25;100.00;101320.81;5078072;28;20081;-68
2023/05/15 09:06:29;;;;;;;39.90;32.28;;;;;;;16.42;100.00;101327.72;5084894;28;20453;-68
2023/05/15 09:08:55;;;;;;;40.08;31.90;;;;;;;16.61;100.00;101323.91;5082732;28;20036;-66
2023/05/15 09:11:23;;;;;;;39.17;32.00;;;;;;;17.08;100.00;101333.06;5083439;28;20128;-69
2023/05/15 09:13:49;;;;;;;39.13;31.40;;;;;;;17.22;100.00;101329.31;5083417;28;20020;-73
2023/05/15 09:16:14;;;;;;;38.53;31.20;;;;;;;17.29;100.00;101328.31;5082760;28;20383;-67
2023/05/15 09:18:40;;;;;;;38.28;31.30;;;;;;;17.33;100.00;101324.69;5084610;28;20092;-65
2023/05/15 09:21:23;;;;;;;37.85;30.10;;;;;;;17.37;100.00;101325.50;5063648;28;20044;-65
2023/05/15 09:23:48;;;;;;;;;;;;;;;17.40;100.00;101331.69;5081682;28;20028;-72
2023/05/15 09:26:14;;;;;;;37.88;31.10;;;;;;;16.76;100.00;101319.25;5083840;28;19977;-69
2023/05/15 09:28:39;;;;;;;38.15;30.15;;;;;;;16.59;100.00;101324.84;5063287;28;20372;-69
2023/05/15 09:31:05;;;;;;;38.10;29.95;;;;;;;16.38;100.00;101318.84;5072540;28;20047;-71
2023/05/15 09:33:33;;;;;;;40.10;31.60;;;;;;;16.14;100.00;101328.91;5079281;28;20386;-74
2023/05/15 09:35:59;;;;;;;39.42;32.20;;;;;;;15.91;100.00;101320.28;5071255;28;20467;-74
2023/05/15 09:38:24;;;;;;;39.35;31.80;;;;;;;15.77;100.00;101328.38;5078815;28;20036;-74
2023/05/15 09:41:00;;;;;;;39.28;31.67;;;;;;;15.74;100.00;101329.31;5055014;28;20090;-74
2023/05/15 09:43:28;;;;;;;37.95;30.13;;;;;;;15.68;100.00;101330.25;5071900;28;20539;-72
2023/05/15 09:45:54;;;;;;;37.92;30.35;;;;;;;15.82;100.00;101326.59;5074805;28;20119;-74
2023/05/15 09:48:20;;;;;;;36.70;27.42;;;;;;;15.92;100.00;101325.59;5072155;28;20114;-73
2023/05/15 09:50:46;;;;;;;32.05;23.52;;;;;;;16.12;100.00;101320.06;5072974;28;20419;-74
2023/05/15 09:53:12;;;;;;;30.95;22.10;;;;;;;16.23;100.00;101319.94;5070580;28;20036;-72
2023/05/15 09:55:40;;;;;;;29.52;21.05;;;;;;;16.26;100.00;101325.22;5074907;28;20032;-74
2023/05/15 09:58:14;;;;;;;31.10;21.55;;;;;;;16.32;100.00;101327.81;5073884;28;20130;-74
2023/05/15 10:00:40;;;;;;;29.63;21.70;;;;;;;16.19;100.00;101337.75;5079423;28;20085;-75
2023/05/15 10:03:07;;;;;;;30.42;23.30;;;;;;;15.96;100.00;101335.34;5078521;28;20514;-74
2023/05/15 10:05:33;;;;;;;30.85;22.50;;;;;;;15.96;100.00;101330.00;5077679;28;20383;-74
2023/05/15 10:07:59;;;;;;;35.42;28.10;;;;;;;16.07;100.00;101331.69;5079057;28;20028;-70
2023/05/15 10:10:25;;;;;;;36.53;29.35;;;;;;;16.08;100.00;101333.44;5075999;28;20033;-73
2023/05/15 10:12:57;;;;;;;36.72;29.73;;;;;;;16.02;100.00;101339.72;5077725;28;20111;-74
2023/05/15 10:15:23;;;;;;;35.22;26.17;;;;;;;16.22;100.00;101331.47;5077838;28;20551;-73
2023/05/15 10:17:50;;;;;;;32.42;24.65;;;;;;;16.37;100.00;101334.00;5075829;28;20029;-71
2023/05/15 10:20:18;;;;;;;32.55;24.33;;;;;;;16.47;100.00;101341.88;5078008;28;20020;-72
2023/05/15 10:22:52;;;;;;;33.03;24.95;;;;;;;16.35;100.00;101346.47;5074523;28;20036;-73
2023/05/15 10:25:29;;;;;;;32.40;24.98;;;;;;;16.22;100.00;101344.81;5076675;28;20557;-69
2023/05/15 10:27:56;;;;;;;32.92;25.30;;;;;;;16.06;100.00;101345.91;5075223;28;20382;-69
2023/05/15 10:30:24;;;;;;;33.33;24.70;;;;;;;16.08;100.00;101347.66;5077565;28;20028;-75
2023/05/15 10:32:50;;;;;;;33.47;24.35;;;;;;;16.13;100.00;101336.94;5074493;28;20474;-71
2023/05/15 10:35:16;;;;;;;32.00;24.98;;;;;;;16.07;100.00;101350.34;5083222;28;20031;-79
2023/05/15 10:37:44;;;;;;;33.70;25.30;;;;;;;15.73;100.00;101350.59;5080441;28;20489;-77
2023/05/15 10:40:10;;;;;;;32.60;25.45;;;;;;;15.68;100.00;101351.56;5083958;28;20111;-76
2023/05/15 10:42:37;;;;;;;32.45;25.40;;;;;;;15.89;100.00;101346.97;5080564;28;20036;-79
2023/05/15 10:45:05;;;;;;;32.25;25.52;;;;;;;16.02;100.00;101345.94;5083288;28;20076;-69
2023/05/15 10:47:33;;;;;;;32.33;25.38;;;;;;;16.05;100.00;101345.03;5080945;28;20045;-76
2023/05/15 10:49:58;;;;;;;33.75;25.88;;;;;;;15.63;100.00;101339.16;5082888;28;20032;-74
2023/05/15 10:52:23;;;;;;;35.13;26.17;;;;;;;15.62;100.00;101350.72;5081993;28;20035;-71
2023/05/15 10:54:49;;;;;;;34.55;26.17;;;;;;;15.61;100.00;101344.53;5081395;28;20024;-66
2023/05/15 10:57:14;;;;;;;34.20;26.38;;;;;;;15.68;100.00;101348.91;5083496;28;20056;-77
2023/05/15 10:59:43;;;;;;;33.92;26.92;;;;;;;15.47;100.00;101347.28;5080361;28;20048;-71
2023/05/15 11:02:20;;;;;;;34.70;26.98;;;;;;;15.39;100.00;101343.81;5076374;28;20102;-79